Time;durP1;ratioP1;P1;durP2;ratioP2;P2;SDS_P1;SDS_P2;PMS_P1;PMS_P2;Temp;Humidity;BMP_temperature;BMP_pressure;BME280_temperature;BME280_humidity;BME280_pressure;Samples;Min_cycle;Max_cycle;Signal;HPM_P1;HPM_P2
2022/09/12 00:01:07;;;;;;;2.78;2.05;;;23.10;99.40;;;;;;5063436;28;45382;-73
2022/09/12 00:03:37;;;;;;;3.08;1.70;;;23.10;99.40;;;;;;5061662;28;45529;-73
2022/09/12 00:06:09;;;;;;;3.00;1.92;;;23.10;99.40;;;;;;5064207;28;45568;-73
2022/09/12 00:08:35;;;;;;;3.03;1.80;;;23.00;99.40;;;;;;5055544;28;46486;-74
2022/09/12 00:11:07;;;;;;;2.58;2.00;;;23.10;99.30;;;;;;5062075;28;45329;-73
2022/09/12 00:13:34;;;;;;;3.28;2.40;;;23.10;99.20;;;;;;5063870;28;45340;-73
2022/09/12 00:16:01;;;;;;;2.60;1.67;;;23.10;99.10;;;;;;5065948;28;45459;-74
2022/09/12 00:18:28;;;;;;;2.10;1.80;;;23.10;99.00;;;;;;5065536;28;46599;-73
2022/09/12 00:20:55;;;;;;;2.60;1.88;;;23.10;98.90;;;;;;5064106;28;45292;-74
2022/09/12 00:23:22;;;;;;;2.67;1.75;;;23.10;98.80;;;;;;5065820;28;45483;-73
2022/09/12 00:25:49;;;;;;;2.80;1.77;;;23.10;98.80;;;;;;5065144;28;45291;-74
2022/09/12 00:28:18;;;;;;;2.42;1.83;;;23.10;98.80;;;;;;5073734;28;47779;-74
2022/09/12 00:30:47;;;;;;;2.47;1.75;;;23.10;98.80;;;;;;5060387;28;45576;-73
2022/09/12 00:33:15;;;;;;;3.35;1.73;;;23.10;98.80;;;;;;5065843;28;45363;-73
2022/09/12 00:35:43;;;;;;;3.88;2.05;;;23.10;98.70;;;;;;5065290;28;45294;-74
2022/09/12 00:38:12;;;;;;;2.65;2.05;;;23.10;98.70;;;;;;5064937;28;46341;-73
2022/09/12 00:40:39;;;;;;;3.13;1.92;;;23.10;98.80;;;;;;5065211;28;45658;-73
2022/09/12 00:43:06;;;;;;;2.75;1.88;;;23.10;98.80;;;;;;5065144;28;45409;-74
2022/09/12 00:45:34;;;;;;;2.13;1.77;;;23.10;98.80;;;;;;5070352;28;45437;-73
2022/09/12 00:48:03;;;;;;;2.95;2.17;;;23.00;98.70;;;;;;5063782;28;45519;-74
2022/09/12 00:50:31;;;;;;;2.47;1.77;;;23.10;98.80;;;;;;5063098;28;46214;-73
2022/09/12 00:53:03;;;;;;;3.03;2.35;;;23.00;98.70;;;;;;5055764;28;45294;-74
2022/09/12 00:55:34;;;;;;;2.53;1.95;;;23.00;98.70;;;;;;5064466;28;45293;-73
2022/09/12 00:58:05;;;;;;;3.65;2.13;;;23.00;98.80;;;;;;5062268;28;47408;-74
2022/09/12 01:00:34;;;;;;;3.30;2.10;;;23.00;98.70;;;;;;5062496;28;45408;-73
2022/09/12 01:03:04;;;;;;;2.90;2.53;;;23.00;98.70;;;;;;5062717;28;45358;-73
2022/09/12 01:05:34;;;;;;;2.45;2.10;;;23.00;98.60;;;;;;5062310;28;45451;-74
2022/09/12 01:08:02;;;;;;;3.47;2.38;;;23.00;98.70;;;;;;5062139;28;46309;-73
2022/09/12 01:10:29;;;;;;;2.33;1.67;;;23.10;98.60;;;;;;5060020;28;45428;-74
2022/09/12 01:12:56;;;;;;;2.40;2.03;;;23.00;98.50;;;;;;5064664;28;45351;-73
2022/09/12 01:15:22;;;;;;;2.65;1.90;;;23.00;98.50;;;;;;5065547;28;45207;-74
2022/09/12 01:18:03;;;;;;;3.33;2.30;;;23.10;98.40;;;;;;5063919;28;47039;-74
2022/09/12 01:20:54;;;;;;;2.60;1.90;;;23.10;98.40;;;;;;5063781;28;45369;-73
2022/09/12 01:23:57;;;;;;;2.65;1.98;;;23.10;98.40;;;;;;5065095;28;45265;-73
2022/09/12 01:27:03;;;;;;;2.40;2.05;;;23.10;98.40;;;;;;5032079;28;45569;-74
2022/09/12 01:29:50;;;;;;;3.05;2.10;;;23.00;98.30;;;;;;5063544;28;48201;-73
2022/09/12 01:32:25;;;;;;;3.10;1.92;;;23.10;98.20;;;;;;5064535;28;45389;-73
2022/09/12 01:34:58;;;;;;;3.10;1.83;;;23.10;98.10;;;;;;5065117;28;45577;-73
2022/09/12 01:37:33;;;;;;;2.65;2.22;;;23.00;98.10;;;;;;5059661;28;45588;-73
2022/09/12 01:40:05;;;;;;;2.72;1.92;;;23.10;98.20;;;;;;5064822;28;45398;-73
2022/09/12 01:42:39;;;;;;;2.80;2.03;;;23.10;98.20;;;;;;5064803;28;45459;-73
2022/09/12 01:45:12;;;;;;;3.35;2.38;;;23.10;98.10;;;;;;5064779;28;45358;-74
2022/09/12 01:47:43;;;;;;;2.90;2.20;;;23.00;98.10;;;;;;5063212;28;45379;-73
2022/09/12 01:50:16;;;;;;;3.40;2.17;;;23.00;98.10;;;;;;5061207;28;46241;-73
2022/09/12 01:52:49;;;;;;;3.42;2.30;;;23.00;98.10;;;;;;5064846;28;45260;-73
2022/09/12 01:55:19;;;;;;;5.85;2.33;;;23.00;98.20;;;;;;5064495;28;45364;-74
2022/09/12 01:57:52;;;;;;;3.38;2.58;;;23.00;98.10;;;;;;5063282;28;45422;-73
2022/09/12 02:00:21;;;;;;;2.13;1.67;;;23.00;98.00;;;;;;5064000;28;45412;-73
2022/09/12 02:02:53;;;;;;;2.85;2.15;;;23.00;98.10;;;;;;5059202;28;45336;-73
2022/09/12 02:05:27;;;;;;;2.95;1.90;;;23.00;98.00;;;;;;5064136;28;45464;-73
2022/09/12 02:08:00;;;;;;;2.33;2.10;;;23.00;98.00;;;;;;5063870;28;45472;-74
2022/09/12 02:10:31;;;;;;;3.35;2.20;;;23.00;97.90;;;;;;5068536;28;47364;-74
2022/09/12 02:13:01;;;;;;;3.47;2.13;;;23.00;98.00;;;;;;5065247;28;45483;-73
2022/09/12 02:15:33;;;;;;;2.67;2.00;;;23.00;98.00;;;;;;5062070;28;45429;-73
2022/09/12 02:18:05;;;;;;;2.90;2.28;;;23.00;97.50;;;;;;5056669;28;45578;-73
2022/09/12 02:20:36;;;;;;;2.95;2.10;;;23.00;97.40;;;;;;5061855;28;47506;-73
2022/09/12 02:23:05;;;;;;;2.10;1.83;;;23.00;97.20;;;;;;5064057;28;45311;-73
2022/09/12 02:25:35;;;;;;;2.95;2.15;;;23.00;97.10;;;;;;5059230;28;45346;-74
2022/09/12 02:28:06;;;;;;;3.70;2.13;;;23.00;97.00;;;;;;5060997;28;45375;-74
2022/09/12 02:30:40;;;;;;;2.83;2.17;;;23.00;96.90;;;;;;5062858;28;46280;-73
2022/09/12 02:33:16;;;;;;;2.63;1.90;;;23.00;96.80;;;;;;5053366;28;45390;-74
2022/09/12 02:35:49;;;;;;;2.97;2.00;;;23.00;96.70;;;;;;5059353;28;45538;-73
2022/09/12 02:38:24;;;;;;;2.45;2.10;;;23.00;96.60;;;;;;5063499;28;45412;-73
2022/09/12 02:40:51;;;;;;;2.47;2.03;;;23.00;96.60;;;;;;5063372;28;45703;-74
2022/09/12 02:43:18;;;;;;;5.32;2.20;;;23.00;96.50;;;;;;5065138;28;45300;-74
2022/09/12 02:45:45;;;;;;;2.42;2.08;;;23.00;96.50;;;;;;5063282;28;45510;-73
2022/09/12 02:48:18;;;;;;;3.28;2.30;;;23.00;96.50;;;;;;5072594;28;45512;-74
2022/09/12 02:50:45;;;;;;;2.75;1.80;;;23.00;96.30;;;;;;5068047;28;48052;-73
2022/09/12 02:53:12;;;;;;;2.65;1.88;;;23.00;96.30;;;;;;5062521;28;45426;-74
2022/09/12 02:55:41;;;;;;;2.75;1.90;;;23.00;96.20;;;;;;5059230;28;45356;-74
2022/09/12 02:58:11;;;;;;;2.30;1.90;;;23.00;96.30;;;;;;5062838;28;45262;-73
2022/09/12 03:00:45;;;;;;;2.45;2.08;;;23.00;96.20;;;;;;5066964;28;45716;-73
2022/09/12 03:03:26;;;;;;;3.33;2.08;;;23.00;96.10;;;;;;5063034;28;45384;-73
2022/09/12 03:05:57;;;;;;;3.22;1.95;;;22.90;96.00;;;;;;5062878;28;45466;-74
2022/09/12 03:08:49;;;;;;;2.58;1.88;;;22.90;96.00;;;;;;5060895;28;45393;-73
2022/09/12 03:11:53;;;;;;;3.03;2.05;;;22.90;95.90;;;;;;5061518;28;46525;-74
2022/09/12 03:14:35;;;;;;;2.30;2.00;;;22.90;95.90;;;;;;4980570;28;45369;-73
2022/09/12 03:17:11;;;;;;;3.22;2.15;;;22.90;95.80;;;;;;5051001;28;45356;-74
2022/09/12 03:19:51;;;;;;;2.08;1.75;;;22.90;95.70;;;;;;5062108;28;45573;-73
2022/09/12 03:22:24;;;;;;;2.35;1.95;;;22.90;96.20;;;;;;5061982;28;47216;-74
2022/09/12 03:24:58;;;;;;;2.13;1.60;;;22.90;95.60;;;;;;5058222;28;45482;-73
2022/09/12 03:27:29;;;;;;;3.13;2.10;;;22.90;95.60;;;;;;5062315;28;45397;-73
2022/09/12 03:29:57;;;;;;;2.10;1.77;;;22.90;95.50;;;;;;5058689;28;45421;-73
2022/09/12 03:32:43;;;;;;;1.88;1.52;;;22.90;95.40;;;;;;5062192;28;48203;-73
2022/09/12 03:35:12;;;;;;;2.00;1.58;;;22.90;95.20;;;;;;5063024;28;45909;-73
2022/09/12 03:37:39;;;;;;;2.17;1.70;;;22.90;95.40;;;;;;5062051;28;45405;-73
2022/09/12 03:40:07;;;;;;;1.88;1.60;;;22.90;95.10;;;;;;5062417;28;45538;-74
2022/09/12 03:42:34;;;;;;;2.08;1.67;;;22.90;95.10;;;;;;5063123;28;48169;-74
2022/09/12 03:45:01;;;;;;;2.80;2.00;;;22.90;95.10;;;;;;5061957;28;45630;-74
2022/09/12 03:47:28;;;;;;;2.15;1.80;;;22.90;95.10;;;;;;5072933;28;45478;-74
2022/09/12 03:49:54;;;;;;;2.65;2.00;;;22.90;95.10;;;;;;5063056;28;45416;-73
2022/09/12 03:52:22;;;;;;;2.00;1.77;;;22.90;95.10;;;;;;5063046;28;46822;-73
2022/09/12 03:54:49;;;;;;;1.90;1.55;;;22.90;95.10;;;;;;5063226;28;45579;-71
2022/09/12 03:57:16;;;;;;;2.35;2.05;;;22.90;95.50;;;;;;5062611;28;45601;-73
2022/09/12 03:59:43;;;;;;;2.50;1.90;;;22.90;95.10;;;;;;5060327;28;45403;-74
2022/09/12 04:02:11;;;;;;;1.92;1.77;;;22.90;95.10;;;;;;5053740;28;47712;-74
2022/09/12 04:04:38;;;;;;;2.67;1.90;;;22.90;94.90;;;;;;5055971;28;45868;-74
2022/09/12 04:07:05;;;;;;;2.15;1.90;;;22.90;95.10;;;;;;5062787;28;45344;-73
2022/09/12 04:09:33;;;;;;;2.83;2.28;;;22.90;94.90;;;;;;5061427;28;45588;-73
2022/09/12 04:12:00;;;;;;;3.03;2.05;;;22.80;94.80;;;;;;5059455;28;48477;-73
2022/09/12 04:14:27;;;;;;;2.45;2.15;;;22.80;95.00;;;;;;5062216;28;45312;-73
2022/09/12 04:16:53;;;;;;;3.05;2.17;;;22.90;94.90;;;;;;5062967;28;45301;-73
2022/09/12 04:19:20;;;;;;;2.30;1.80;;;22.80;94.80;;;;;;5061790;28;45731;-74
2022/09/12 04:21:47;;;;;;;2.60;1.95;;;22.80;94.70;;;;;;5050075;28;48494;-73
2022/09/12 04:24:14;;;;;;;6.75;1.83;;;22.80;94.80;;;;;;5062220;28;45745;-73
2022/09/12 04:26:42;;;;;;;2.28;1.73;;;22.90;94.80;;;;;;5048008;28;45333;-73
2022/09/12 04:29:11;;;;;;;2.55;2.00;;;22.80;94.50;;;;;;5060302;28;45488;-74
2022/09/12 04:31:38;;;;;;;2.20;1.80;;;22.80;94.40;;;;;;5063236;28;45369;-73
2022/09/12 04:34:05;;;;;;;2.38;2.10;;;22.90;94.40;;;;;;5065837;28;45454;-73
2022/09/12 04:36:33;;;;;;;2.80;2.10;;;22.90;94.40;;;;;;5065674;28;45299;-74
2022/09/12 04:39:00;;;;;;;2.47;1.83;;;22.80;94.30;;;;;;5065370;28;46165;-74
2022/09/12 04:41:29;;;;;;;2.78;1.95;;;22.80;94.30;;;;;;5065731;28;48008;-74
2022/09/12 04:44:00;;;;;;;2.30;1.83;;;22.90;94.30;;;;;;5061703;28;45409;-74
2022/09/12 04:46:28;;;;;;;2.20;1.90;;;22.80;94.20;;;;;;5063449;28;45244;-74
2022/09/12 04:48:55;;;;;;;2.97;1.98;;;22.80;94.20;;;;;;5067646;28;45474;-73
2022/09/12 04:51:26;;;;;;;2.63;1.90;;;22.80;94.20;;;;;;5061246;28;47101;-74
2022/09/12 04:53:55;;;;;;;2.28;1.90;;;22.90;94.10;;;;;;5066697;28;45263;-74
2022/09/12 04:56:22;;;;;;;3.03;1.73;;;22.80;94.10;;;;;;5058587;28;45236;-73
2022/09/12 04:58:50;;;;;;;2.45;2.05;;;22.90;94.10;;;;;;5065011;28;45374;-73
2022/09/12 05:01:19;;;;;;;2.60;2.13;;;22.80;93.90;;;;;;5064322;28;48289;-74
2022/09/12 05:03:47;;;;;;;2.40;1.83;;;22.80;93.90;;;;;;5058192;28;45413;-73
2022/09/12 05:06:15;;;;;;;2.75;1.85;;;22.80;93.80;;;;;;5064042;28;45563;-73
2022/09/12 05:08:42;;;;;;;2.08;1.42;;;22.80;93.80;;;;;;5065780;28;45455;-73
2022/09/12 05:11:12;;;;;;;2.78;1.98;;;22.80;93.80;;;;;;5062469;28;46492;-74
2022/09/12 05:13:40;;;;;;;2.70;1.73;;;22.80;93.80;;;;;;5063450;28;45462;-73
2022/09/12 05:16:08;;;;;;;2.28;1.85;;;22.80;93.80;;;;;;5070462;28;45364;-73
2022/09/12 05:18:37;;;;;;;3.05;1.95;;;22.80;93.80;;;;;;5065103;28;45425;-74
2022/09/12 05:21:08;;;;;;;1.95;1.73;;;22.80;93.80;;;;;;5063889;28;46986;-74
2022/09/12 05:23:35;;;;;;;2.30;1.83;;;22.80;93.70;;;;;;5073094;28;45470;-73
2022/09/12 05:26:03;;;;;;;2.00;1.60;;;22.80;93.70;;;;;;5070008;28;45249;-73
2022/09/12 05:28:32;;;;;;;2.75;1.90;;;22.80;93.70;;;;;;5064591;28;45355;-74
2022/09/12 05:31:02;;;;;;;3.00;2.10;;;22.80;93.70;;;;;;5064640;28;47738;-74
2022/09/12 05:33:29;;;;;;;2.35;2.00;;;22.90;93.70;;;;;;5058202;28;45936;-73
2022/09/12 05:35:57;;;;;;;2.83;2.10;;;22.80;93.50;;;;;;5064645;28;45593;-74
2022/09/12 05:38:24;;;;;;;2.25;1.75;;;22.80;92.80;;;;;;5064642;28;45495;-73
2022/09/12 05:40:52;;;;;;;2.50;2.20;;;22.80;92.10;;;;;;5064771;28;48477;-74
2022/09/12 05:43:19;;;;;;;2.50;1.95;;;22.80;91.80;;;;;;5068971;28;45295;-73
2022/09/12 05:45:46;;;;;;;2.85;2.22;;;22.80;91.90;;;;;;5058030;28;45447;-74
2022/09/12 05:48:12;;;;;;;3.42;2.22;;;22.80;91.90;;;;;;5059677;28;45526;-73
2022/09/12 05:50:41;;;;;;;5.32;2.40;;;22.90;92.20;;;;;;5068564;28;47516;-74
2022/09/12 05:53:09;;;;;;;3.13;2.58;;;22.80;92.20;;;;;;5062327;28;45715;-73
2022/09/12 05:55:36;;;;;;;3.70;2.55;;;22.90;92.20;;;;;;5055705;28;45447;-74
2022/09/12 05:58:03;;;;;;;2.85;2.25;;;22.90;92.50;;;;;;5062526;28;45474;-73
2022/09/12 06:00:30;;;;;;;3.33;2.20;;;22.90;92.60;;;;;;5060267;28;46408;-73
2022/09/12 06:02:56;;;;;;;3.72;2.30;;;22.90;92.70;;;;;;5066320;28;45279;-74
2022/09/12 06:05:24;;;;;;;2.67;2.10;;;22.90;92.80;;;;;;5076973;28;45445;-74
2022/09/12 06:07:51;;;;;;;4.07;2.05;;;22.90;93.40;;;;;;5062698;28;45497;-73
2022/09/12 06:10:21;;;;;;;2.90;2.17;;;22.90;93.50;;;;;;5055175;28;46410;-74
2022/09/12 06:12:54;;;;;;;2.15;1.75;;;23.00;93.60;;;;;;5056019;28;45293;-75
2022/09/12 06:15:21;;;;;;;2.97;2.00;;;23.00;93.40;;;;;;5062348;28;45338;-74
2022/09/12 06:17:48;;;;;;;2.50;1.90;;;23.00;93.60;;;;;;5064191;28;45744;-74
2022/09/12 06:20:15;;;;;;;2.55;2.00;;;23.00;93.70;;;;;;5064150;28;45339;-74
2022/09/12 06:22:42;;;;;;;3.22;1.60;;;23.00;93.80;;;;;;5063790;28;45514;-74
2022/09/12 06:25:09;;;;;;;2.63;1.75;;;23.00;93.90;;;;;;5069900;28;45383;-74
2022/09/12 06:27:37;;;;;;;2.78;2.13;;;23.00;94.00;;;;;;5064809;28;45485;-74
2022/09/12 06:30:05;;;;;;;2.88;1.90;;;23.00;94.10;;;;;;5067564;28;45381;-74
2022/09/12 06:32:33;;;;;;;2.58;1.90;;;23.00;94.10;;;;;;5060354;28;45308;-74
2022/09/12 06:35:00;;;;;;;2.85;1.65;;;23.00;94.40;;;;;;5063107;28;45414;-74
2022/09/12 06:37:28;;;;;;;2.65;1.77;;;23.00;94.20;;;;;;5064460;28;45473;-74
2022/09/12 06:39:55;;;;;;;2.30;1.73;;;23.00;94.20;;;;;;5061661;28;46829;-75
2022/09/12 06:42:22;;;;;;;2.60;1.88;;;23.10;94.10;;;;;;5063883;28;45489;-74
2022/09/12 06:44:50;;;;;;;2.15;1.65;;;23.00;94.20;;;;;;5059062;28;45495;-75
2022/09/12 06:47:17;;;;;;;2.00;1.67;;;23.00;94.20;;;;;;5063150;28;45281;-74
2022/09/12 06:49:44;;;;;;;1.73;1.55;;;23.00;94.30;;;;;;5063545;28;45465;-74
2022/09/12 06:52:10;;;;;;;2.25;1.70;;;23.00;94.20;;;;;;5063341;28;45422;-74
2022/09/12 06:54:37;;;;;;;2.47;1.73;;;23.00;94.20;;;;;;5063484;28;45568;-74
2022/09/12 06:57:04;;;;;;;3.00;1.92;;;23.10;94.40;;;;;;5064322;28;45479;-74
2022/09/12 06:59:31;;;;;;;2.45;1.67;;;23.00;94.60;;;;;;5067104;28;46593;-74
2022/09/12 07:02:00;;;;;;;1.85;1.60;;;23.10;94.50;;;;;;5060394;28;45629;-74
2022/09/12 07:04:27;;;;;;;1.98;1.45;;;23.00;94.60;;;;;;5060807;28;45344;-74
2022/09/12 07:06:53;;;;;;;1.77;1.45;;;23.00;94.80;;;;;;5062502;28;45458;-74
2022/09/12 07:09:20;;;;;;;2.17;1.63;;;23.10;94.60;;;;;;5063583;28;45577;-75
2022/09/12 07:11:47;;;;;;;2.45;1.65;;;23.10;94.80;;;;;;5063183;28;45634;-74
2022/09/12 07:14:14;;;;;;;1.95;1.50;;;23.00;94.70;;;;;;5062430;28;45458;-74
2022/09/12 07:16:42;;;;;;;1.70;1.60;;;23.00;94.70;;;;;;5070972;28;45318;-75
2022/09/12 07:19:11;;;;;;;2.00;1.80;;;23.00;94.70;;;;;;5060530;28;46415;-74
2022/09/12 07:21:39;;;;;;;1.83;1.60;;;23.00;94.70;;;;;;5063294;28;45897;-74
2022/09/12 07:24:08;;;;;;;2.40;1.75;;;23.00;94.90;;;;;;5060949;28;45441;-74
2022/09/12 07:26:35;;;;;;;2.55;1.60;;;23.00;94.80;;;;;;5063616;28;45335;-74
2022/09/12 07:29:02;;;;;;;1.90;1.70;;;23.00;94.90;;;;;;5061334;28;47494;-75
2022/09/12 07:31:29;;;;;;;2.03;1.67;;;23.00;94.90;;;;;;5059734;28;45353;-74
2022/09/12 07:33:56;;;;;;;1.48;1.35;;;23.00;95.10;;;;;;5063746;28;45226;-74
2022/09/12 07:36:25;;;;;;;1.63;1.45;;;23.00;94.90;;;;;;5060985;28;45465;-74
2022/09/12 07:38:55;;;;;;;1.88;1.50;;;23.00;94.90;;;;;;5062676;28;47521;-74
2022/09/12 07:41:25;;;;;;;1.50;1.30;;;23.00;95.00;;;;;;5061629;28;45418;-74
2022/09/12 07:43:53;;;;;;;1.95;1.58;;;23.00;95.00;;;;;;5063132;28;45601;-74
2022/09/12 07:46:21;;;;;;;2.25;1.80;;;23.00;94.90;;;;;;5061994;28;45610;-74
2022/09/12 07:48:51;;;;;;;2.80;1.67;;;23.00;95.10;;;;;;5064135;28;45612;-74
2022/09/12 07:51:18;;;;;;;2.28;1.40;;;23.00;95.10;;;;;;5061872;28;45314;-74
2022/09/12 07:53:47;;;;;;;1.92;1.70;;;23.00;94.90;;;;;;5061216;28;45305;-73
2022/09/12 07:56:15;;;;;;;1.60;1.50;;;23.00;95.00;;;;;;5062836;28;45433;-74
2022/09/12 07:58:43;;;;;;;2.15;1.67;;;23.00;95.10;;;;;;5061359;28;45484;-75
2022/09/12 08:01:12;;;;;;;2.25;1.52;;;23.00;95.10;;;;;;5062722;28;45217;-74
2022/09/12 08:03:39;;;;;;;2.63;1.65;;;23.00;95.10;;;;;;5063163;28;45344;-74
2022/09/12 08:06:08;;;;;;;2.22;1.70;;;23.00;95.10;;;;;;5064615;28;45571;-74
2022/09/12 08:08:35;;;;;;;1.60;1.30;;;23.00;95.10;;;;;;5065709;28;47331;-74
2022/09/12 08:11:05;;;;;;;2.03;1.52;;;23.00;95.10;;;;;;5065453;28;45384;-74
2022/09/12 08:13:34;;;;;;;1.60;1.35;;;23.00;95.10;;;;;;5065315;28;45328;-74
2022/09/12 08:16:02;;;;;;;2.33;1.60;;;23.00;95.10;;;;;;5066082;28;45449;-73
2022/09/12 08:18:31;;;;;;;2.33;1.75;;;23.00;95.10;;;;;;5048277;28;46498;-74
2022/09/12 08:20:58;;;;;;;1.83;1.48;;;23.00;95.10;;;;;;5066096;28;45370;-74
2022/09/12 08:23:27;;;;;;;2.10;1.75;;;23.00;95.10;;;;;;5070646;28;45424;-74
2022/09/12 08:25:55;;;;;;;1.90;1.50;;;23.00;95.10;;;;;;5062522;28;45281;-74
2022/09/12 08:28:24;;;;;;;1.50;1.40;;;23.00;95.10;;;;;;5065842;28;46366;-75
2022/09/12 08:30:51;;;;;;;1.63;1.35;;;23.00;95.10;;;;;;5065962;28;45420;-74
2022/09/12 08:33:18;;;;;;;1.95;1.52;;;23.00;95.10;;;;;;5050015;28;45254;-74
2022/09/12 08:35:45;;;;;;;1.60;1.40;;;23.00;95.10;;;;;;5061348;28;45317;-74
2022/09/12 08:38:11;;;;;;;1.65;1.40;;;23.00;95.10;;;;;;5065511;28;47055;-74
2022/09/12 08:40:47;;;;;;;1.60;1.48;;;23.00;95.10;;;;;;5066852;28;45308;-74
2022/09/12 08:43:33;;;;;;;1.83;1.27;;;23.00;95.10;;;;;;5051889;28;45428;-74
2022/09/12 08:46:05;;;;;;;2.05;1.50;;;23.00;95.50;;;;;;5062613;28;45271;-74
2022/09/12 08:48:32;;;;;;;1.75;1.63;;;23.00;95.10;;;;;;5061308;28;47136;-75
2022/09/12 08:51:00;;;;;;;1.30;1.20;;;23.00;95.10;;;;;;5066067;28;45740;-74
2022/09/12 08:53:29;;;;;;;1.45;1.30;;;23.10;95.20;;;;;;5065821;28;45306;-74
2022/09/12 08:55:59;;;;;;;1.73;1.42;;;23.00;95.10;;;;;;5066080;28;45396;-74
2022/09/12 08:58:28;;;;;;;1.65;1.15;;;23.00;95.10;;;;;;5069711;28;46875;-74
2022/09/12 09:01:03;;;;;;;1.85;1.50;;;23.10;95.20;;;;;;5065616;28;45572;-74
2022/09/12 09:03:56;;;;;;;1.60;1.30;;;23.00;95.10;;;;;;5066315;28;45282;-74
2022/09/12 09:06:42;;;;;;;1.67;1.48;;;23.00;95.30;;;;;;5065312;28;45524;-74
2022/09/12 09:09:13;;;;;;;1.73;1.40;;;23.10;95.20;;;;;;5065392;28;47869;-73
2022/09/12 09:11:57;;;;;;;2.15;1.52;;;23.10;95.20;;;;;;5064403;28;45349;-74
2022/09/12 09:14:48;;;;;;;1.67;1.40;;;23.10;95.30;;;;;;5079206;28;45472;-74
2022/09/12 09:17:20;;;;;;;1.73;1.17;;;23.10;95.40;;;;;;5054843;28;45294;-74
2022/09/12 09:19:52;;;;;;;1.63;1.30;;;23.10;95.40;;;;;;5065704;28;45396;-74
2022/09/12 09:22:31;;;;;;;1.25;1.15;;;23.10;95.40;;;;;;5065128;28;45372;-74
2022/09/12 09:25:02;;;;;;;1.70;1.20;;;23.10;95.40;;;;;;5064729;28;45274;-74
2022/09/12 09:27:34;;;;;;;1.60;1.40;;;23.10;95.30;;;;;;5062165;28;45517;-74
2022/09/12 09:30:04;;;;;;;1.50;1.40;;;23.10;95.40;;;;;;5065910;28;45580;-74
2022/09/12 09:32:35;;;;;;;1.40;1.20;;;23.10;95.40;;;;;;5059845;28;45396;-74
2022/09/12 09:35:11;;;;;;;1.75;1.52;;;23.10;95.30;;;;;;5064572;28;45238;-74
2022/09/12 09:37:43;;;;;;;1.52;1.30;;;23.10;95.90;;;;;;5057444;28;45520;-73
2022/09/12 09:40:18;;;;;;;1.38;1.20;;;23.10;95.50;;;;;;5065027;28;46569;-74
2022/09/12 09:42:53;;;;;;;1.38;1.23;;;23.10;95.60;;;;;;5064956;28;45924;-74
2022/09/12 09:45:24;;;;;;;1.58;1.20;;;23.10;95.60;;;;;;5064495;28;45374;-74
2022/09/12 09:47:55;;;;;;;1.10;1.00;;;23.10;95.50;;;;;;5065070;28;45420;-74
2022/09/12 09:50:23;;;;;;;1.75;1.17;;;23.10;95.50;;;;;;5064793;28;46833;-74
2022/09/12 09:52:51;;;;;;;1.75;1.25;;;23.10;95.60;;;;;;5064569;28;45377;-74
2022/09/12 09:55:26;;;;;;;1.20;1.10;;;23.10;95.50;;;;;;5071788;28;45346;-74
2022/09/12 09:57:53;;;;;;;1.60;1.10;;;23.10;95.60;;;;;;5064087;28;45414;-74
2022/09/12 10:00:25;;;;;;;1.17;1.05;;;23.10;95.60;;;;;;5066977;28;47002;-74
2022/09/12 10:03:06;;;;;;;0.90;0.90;;;23.10;95.50;;;;;;5064435;28;45261;-74
2022/09/12 10:05:34;;;;;;;1.48;1.25;;;23.10;95.50;;;;;;5059761;28;45385;-74
2022/09/12 10:08:02;;;;;;;1.30;1.20;;;23.10;95.50;;;;;;5070531;28;45472;-74
2022/09/12 10:10:29;;;;;;;1.63;1.08;;;23.10;95.50;;;;;;5063646;28;47002;-74
2022/09/12 10:13:08;;;;;;;1.17;1.08;;;23.10;95.40;;;;;;5065081;28;45903;-74
2022/09/12 10:15:37;;;;;;;1.30;1.10;;;23.10;95.40;;;;;;5062006;28;45504;-74
2022/09/12 10:18:04;;;;;;;1.17;1.08;;;23.10;95.40;;;;;;5064174;28;45356;-74
2022/09/12 10:20:34;;;;;;;0.90;0.90;;;23.10;95.50;;;;;;5063900;28;45246;-74
2022/09/12 10:23:15;;;;;;;1.15;0.90;;;23.10;95.50;;;;;;5071659;28;45348;-74
2022/09/12 10:25:46;;;;;;;1.00;0.90;;;23.10;95.60;;;;;;5056354;28;45273;-74
2022/09/12 10:28:24;;;;;;;1.08;0.90;;;23.10;95.60;;;;;;5063566;28;45400;-74
2022/09/12 10:30:54;;;;;;;1.02;0.93;;;23.10;95.60;;;;;;5060084;28;46311;-74
2022/09/12 10:33:24;;;;;;;1.45;0.95;;;23.20;95.60;;;;;;5064745;28;45329;-74
2022/09/12 10:35:53;;;;;;;1.13;1.00;;;23.10;95.60;;;;;;5063961;28;45397;-74
2022/09/12 10:38:23;;;;;;;1.38;1.00;;;23.10;95.60;;;;;;5064337;28;45274;-74
2022/09/12 10:40:57;;;;;;;1.13;1.02;;;23.10;95.60;;;;;;5063176;28;45405;-74
2022/09/12 10:43:27;;;;;;;1.23;1.10;;;23.10;95.60;;;;;;5060950;28;45309;-74
2022/09/12 10:45:59;;;;;;;1.00;0.90;;;23.10;95.70;;;;;;5051262;28;45337;-74
2022/09/12 10:48:30;;;;;;;1.33;0.73;;;23.10;95.60;;;;;;5055069;28;45445;-74
2022/09/12 10:50:57;;;;;;;1.00;0.90;;;23.10;95.60;;;;;;5063435;28;47273;-74
2022/09/12 10:53:26;;;;;;;1.48;1.00;;;23.10;95.50;;;;;;5063182;28;45210;-74
2022/09/12 10:56:03;;;;;;;1.13;0.90;;;23.20;95.50;;;;;;5064730;28;45522;-74
2022/09/12 10:58:52;;;;;;;1.45;1.10;;;23.20;95.50;;;;;;5062927;28;45485;-74
2022/09/12 11:01:36;;;;;;;1.10;1.00;;;23.20;95.40;;;;;;5063436;28;45330;-73
2022/09/12 11:04:18;;;;;;;0.95;0.73;;;23.20;95.40;;;;;;5063484;28;45412;-74
2022/09/12 11:06:55;;;;;;;1.13;0.95;;;23.20;95.40;;;;;;5062144;28;45525;-74
2022/09/12 11:09:34;;;;;;;0.80;0.80;;;23.20;95.40;;;;;;5055191;28;45150;-73
2022/09/12 11:12:08;;;;;;;0.70;0.68;;;23.20;95.30;;;;;;5062130;28;48766;-74
2022/09/12 11:14:55;;;;;;;1.10;0.82;;;23.20;95.30;;;;;;5063550;28;45490;-74
2022/09/12 11:17:35;;;;;;;0.73;0.73;;;23.20;95.20;;;;;;5062551;28;45525;-73
2022/09/12 11:20:39;;;;;;;0.80;0.73;;;23.20;95.20;;;;;;5063645;28;45254;-74
2022/09/12 11:23:29;;;;;;;0.70;0.70;;;23.20;95.20;;;;;;5060121;28;46505;-74
2022/09/12 11:26:03;;;;;;;0.70;0.70;;;23.20;95.30;;;;;;5063240;28;45940;-74
2022/09/12 11:28:36;;;;;;;0.82;0.75;;;23.20;95.40;;;;;;5062945;28;45427;-74
2022/09/12 11:31:22;;;;;;;0.70;0.70;;;23.20;95.40;;;;;;5061209;28;45298;-73
2022/09/12 11:33:52;;;;;;;0.68;0.68;;;23.20;95.40;;;;;;5056478;28;46175;-74
2022/09/12 11:36:33;;;;;;;0.90;0.70;;;23.20;95.40;;;;;;5060559;28;45491;-73
2022/09/12 11:39:06;;;;;;;0.60;0.60;;;23.20;95.40;;;;;;5062687;28;45342;-74
2022/09/12 11:41:37;;;;;;;0.75;0.75;;;23.20;95.20;;;;;;5051504;28;45298;-74
2022/09/12 11:44:14;;;;;;;0.60;0.60;;;23.20;95.30;;;;;;5063182;28;47294;-74
2022/09/12 11:46:42;;;;;;;0.65;0.63;;;23.20;95.20;;;;;;5065572;28;45319;-74
2022/09/12 11:49:24;;;;;;;0.80;0.70;;;23.20;95.30;;;;;;5062924;28;45301;-74
2022/09/12 11:51:55;;;;;;;0.65;0.65;;;23.20;95.30;;;;;;5060759;28;45246;-74
2022/09/12 11:54:28;;;;;;;0.55;0.55;;;23.20;95.20;;;;;;5062851;28;46372;-74
2022/09/12 11:57:03;;;;;;;0.68;0.68;;;23.20;95.20;;;;;;5059442;28;45626;-74
2022/09/12 11:59:39;;;;;;;0.75;0.70;;;23.20;95.20;;;;;;5057521;28;45290;-74
2022/09/12 12:02:12;;;;;;;0.80;0.80;;;23.20;95.20;;;;;;5061970;28;45510;-74
2022/09/12 12:04:49;;;;;;;0.63;0.63;;;23.20;95.20;;;;;;5062503;28;46294;-74
2022/09/12 12:07:15;;;;;;;0.60;0.60;;;23.20;95.20;;;;;;5061009;28;45506;-73
2022/09/12 12:09:49;;;;;;;0.80;0.63;;;23.20;95.20;;;;;;5062996;28;45419;-74
2022/09/12 12:12:21;;;;;;;0.70;0.50;;;23.20;95.20;;;;;;5062673;28;45424;-74
2022/09/12 12:14:51;;;;;;;0.90;0.80;;;23.20;95.20;;;;;;5060210;28;46283;-74
2022/09/12 12:17:21;;;;;;;0.55;0.55;;;23.20;95.20;;;;;;5061360;28;45412;-74
2022/09/12 12:19:59;;;;;;;0.98;0.50;;;23.20;95.20;;;;;;5062920;28;45236;-74
2022/09/12 12:22:26;;;;;;;1.10;0.60;;;23.20;95.20;;;;;;5080436;28;45450;-74
2022/09/12 12:25:05;;;;;;;0.60;0.60;;;23.20;95.20;;;;;;5067601;28;45303;-74
2022/09/12 12:27:55;;;;;;;0.70;0.60;;;23.20;95.20;;;;;;5062542;28;46175;-74
2022/09/12 12:31:04;;;;;;;1.05;0.60;;;23.20;95.20;;;;;;5062274;28;45323;-74
2022/09/12 12:33:55;;;;;;;0.50;0.50;;;23.20;95.20;;;;;;5062922;28;45297;-74
2022/09/12 12:36:42;;;;;;;0.57;0.57;;;23.20;95.20;;;;;;5062416;28;45397;-75
2022/09/12 12:39:46;;;;;;;0.73;0.50;;;23.20;95.20;;;;;;5062945;28;45344;-73
2022/09/12 12:43:04;;;;;;;1.15;0.65;;;23.20;95.20;;;;;;5060848;28;45423;-74
2022/09/12 12:46:08;;;;;;;0.60;0.60;;;23.20;95.20;;;;;;5055743;28;45368;-74
2022/09/12 12:48:49;;;;;;;0.45;0.45;;;23.20;95.20;;;;;;5062314;28;45418;-74
2022/09/12 12:51:47;;;;;;;0.57;0.57;;;23.20;95.20;;;;;;5057884;28;45410;-74
2022/09/12 12:54:52;;;;;;;0.40;0.40;;;23.20;95.20;;;;;;5062854;28;45346;-74
2022/09/12 12:57:35;;;;;;;0.60;0.60;;;23.20;95.20;;;;;;5065591;28;45379;-74
2022/09/12 13:00:05;;;;;;;0.60;0.60;;;23.20;95.20;;;;;;5053819;28;47327;-74
2022/09/12 13:02:35;;;;;;;0.40;0.40;;;23.20;95.20;;;;;;5065660;28;45351;-74
2022/09/12 13:05:07;;;;;;;0.57;0.47;;;23.20;95.10;;;;;;5065775;28;45306;-75
2022/09/12 13:07:38;;;;;;;0.60;0.45;;;23.20;95.00;;;;;;5065208;28;45290;-74
2022/09/12 13:10:07;;;;;;;0.43;0.43;;;23.20;95.00;;;;;;5065557;28;47332;-74
2022/09/12 13:12:37;;;;;;;0.80;0.68;;;23.20;95.00;;;;;;5066191;28;45316;-74